sensor_id;sensor_type;location;lat;lon;timestamp;temperature;humidity
11264;DHT22;5689;48.798;9.070;2023-04-24T00:00:12;11.40;99.90
11264;DHT22;5689;48.798;9.070;2023-04-24T00:02:41;11.40;99.90
11264;DHT22;5689;48.798;9.070;2023-04-24T00:05:11;11.40;99.90
11264;DHT22;5689;48.798;9.070;2023-04-24T00:07:40;11.40;99.90
11264;DHT22;5689;48.798;9.070;2023-04-24T00:10:09;11.40;99.90
11264;DHT22;5689;48.798;9.070;2023-04-24T00:12:39;11.50;99.90
11264;DHT22;5689;48.798;9.070;2023-04-24T00:15:08;11.50;99.90
11264;DHT22;5689;48.798;9.070;2023-04-24T00:17:36;11.50;99.90
11264;DHT22;5689;48.798;9.070;2023-04-24T00:20:05;11.50;99.90
11264;DHT22;5689;48.798;9.070;2023-04-24T00:22:33;11.50;99.90
11264;DHT22;5689;48.798;9.070;2023-04-24T00:25:01;11.50;99.90
11264;DHT22;5689;48.798;9.070;2023-04-24T00:27:29;11.50;99.90
11264;DHT22;5689;48.798;9.070;2023-04-24T00:29:59;11.50;99.90
11264;DHT22;5689;48.798;9.070;2023-04-24T00:32:27;11.50;99.90
11264;DHT22;5689;48.798;9.070;2023-04-24T00:34:55;11.50;99.90
11264;DHT22;5689;48.798;9.070;2023-04-24T00:37:23;11.50;99.90
11264;DHT22;5689;48.798;9.070;2023-04-24T00:39:51;11.60;99.90
11264;DHT22;5689;48.798;9.070;2023-04-24T00:42:19;11.60;99.90
11264;DHT22;5689;48.798;9.070;2023-04-24T00:44:48;11.60;99.90
11264;DHT22;5689;48.798;9.070;2023-04-24T00:47:19;11.60;99.90
11264;DHT22;5689;48.798;9.070;2023-04-24T00:49:48;11.70;99.90
11264;DHT22;5689;48.798;9.070;2023-04-24T00:52:16;11.60;99.90
11264;DHT22;5689;48.798;9.070;2023-04-24T00:54:45;11.60;99.90
11264;DHT22;5689;48.798;9.070;2023-04-24T00:57:14;11.60;99.90
11264;DHT22;5689;48.798;9.070;2023-04-24T00:59:42;11.70;99.90
11264;DHT22;5689;48.798;9.070;2023-04-24T01:02:11;11.60;99.90
11264;DHT22;5689;48.798;9.070;2023-04-24T01:04:40;11.60;99.90
11264;DHT22;5689;48.798;9.070;2023-04-24T01:07:09;11.60;99.90
11264;DHT22;5689;48.798;9.070;2023-04-24T01:09:40;11.60;99.90
11264;DHT22;5689;48.798;9.070;2023-04-24T01:12:08;11.60;99.90
11264;DHT22;5689;48.798;9.070;2023-04-24T01:14:37;11.60;99.90
11264;DHT22;5689;48.798;9.070;2023-04-24T01:17:05;11.60;99.90
11264;DHT22;5689;48.798;9.070;2023-04-24T01:19:33;11.60;99.90
11264;DHT22;5689;48.798;9.070;2023-04-24T01:22:08;11.60;99.90
11264;DHT22;5689;48.798;9.070;2023-04-24T01:24:38;11.60;99.90
11264;DHT22;5689;48.798;9.070;2023-04-24T01:27:06;11.60;99.90
11264;DHT22;5689;48.798;9.070;2023-04-24T01:29:35;11.50;99.90
11264;DHT22;5689;48.798;9.070;2023-04-24T01:32:03;11.50;99.90
11264;DHT22;5689;48.798;9.070;2023-04-24T01:34:32;11.50;99.90
11264;DHT22;5689;48.798;9.070;2023-04-24T01:37:00;11.40;99.90
11264;DHT22;5689;48.798;9.070;2023-04-24T01:39:30;11.40;99.90
11264;DHT22;5689;48.798;9.070;2023-04-24T01:42:00;11.40;99.90
11264;DHT22;5689;48.798;9.070;2023-04-24T01:44:29;11.40;99.90
11264;DHT22;5689;48.798;9.070;2023-04-24T01:46:58;11.30;99.90
11264;DHT22;5689;48.798;9.070;2023-04-24T01:49:26;11.30;99.90
11264;DHT22;5689;48.798;9.070;2023-04-24T01:51:54;11.30;99.90
11264;DHT22;5689;48.798;9.070;2023-04-24T01:54:22;11.20;99.90
11264;DHT22;5689;48.798;9.070;2023-04-24T01:56:52;11.20;99.90
11264;DHT22;5689;48.798;9.070;2023-04-24T01:59:20;11.20;99.90
11264;DHT22;5689;48.798;9.070;2023-04-24T02:01:49;11.20;99.90
11264;DHT22;5689;48.798;9.070;2023-04-24T02:04:18;11.20;99.90
11264;DHT22;5689;48.798;9.070;2023-04-24T02:06:46;11.30;99.90
11264;DHT22;5689;48.798;9.070;2023-04-24T02:09:15;11.30;99.90
11264;DHT22;5689;48.798;9.070;2023-04-24T02:11:43;11.30;99.90
11264;DHT22;5689;48.798;9.070;2023-04-24T02:14:13;11.30;99.90
11264;DHT22;5689;48.798;9.070;2023-04-24T02:16:40;11.20;99.90
11264;DHT22;5689;48.798;9.070;2023-04-24T02:19:09;11.20;99.90
11264;DHT22;5689;48.798;9.070;2023-04-24T02:21:36;11.20;99.90
11264;DHT22;5689;48.798;9.070;2023-04-24T02:24:07;11.40;99.90
11264;DHT22;5689;48.798;9.070;2023-04-24T02:26:35;11.40;99.90
11264;DHT22;5689;48.798;9.070;2023-04-24T02:29:03;11.40;99.90
11264;DHT22;5689;48.798;9.070;2023-04-24T02:31:33;11.40;99.90
11264;DHT22;5689;48.798;9.070;2023-04-24T02:34:01;11.50;99.90
11264;DHT22;5689;48.798;9.070;2023-04-24T02:36:28;11.40;99.90
11264;DHT22;5689;48.798;9.070;2023-04-24T02:38:57;11.10;99.90
11264;DHT22;5689;48.798;9.070;2023-04-24T02:41:24;10.90;99.90
11264;DHT22;5689;48.798;9.070;2023-04-24T02:43:57;10.70;99.90
11264;DHT22;5689;48.798;9.070;2023-04-24T02:46:26;10.50;99.90
11264;DHT22;5689;48.798;9.070;2023-04-24T02:48:55;10.40;99.90
11264;DHT22;5689;48.798;9.070;2023-04-24T02:51:23;10.40;99.90
11264;DHT22;5689;48.798;9.070;2023-04-24T02:53:51;10.40;99.90
11264;DHT22;5689;48.798;9.070;2023-04-24T02:56:19;10.30;99.90
11264;DHT22;5689;48.798;9.070;2023-04-24T02:58:47;10.40;99.90
11264;DHT22;5689;48.798;9.070;2023-04-24T03:01:15;10.40;99.90
11264;DHT22;5689;48.798;9.070;2023-04-24T03:03:44;10.40;99.90
11264;DHT22;5689;48.798;9.070;2023-04-24T03:06:13;10.30;99.90
11264;DHT22;5689;48.798;9.070;2023-04-24T03:08:42;10.30;99.90
11264;DHT22;5689;48.798;9.070;2023-04-24T03:11:10;10.30;99.90
11264;DHT22;5689;48.798;9.070;2023-04-24T03:13:38;10.20;99.90
11264;DHT22;5689;48.798;9.070;2023-04-24T03:16:06;10.20;99.90
11264;DHT22;5689;48.798;9.070;2023-04-24T03:18:34;10.10;99.90
11264;DHT22;5689;48.798;9.070;2023-04-24T03:21:03;10.00;99.90
11264;DHT22;5689;48.798;9.070;2023-04-24T03:23:33;10.00;99.90
11264;DHT22;5689;48.798;9.070;2023-04-24T03:26:01;10.00;99.90
11264;DHT22;5689;48.798;9.070;2023-04-24T03:28:30;10.00;99.90
11264;DHT22;5689;48.798;9.070;2023-04-24T03:31:02;10.00;99.90
11264;DHT22;5689;48.798;9.070;2023-04-24T03:33:34;9.90;99.90
11264;DHT22;5689;48.798;9.070;2023-04-24T03:36:03;10.10;99.90
11264;DHT22;5689;48.798;9.070;2023-04-24T03:38:39;10.10;99.90
11264;DHT22;5689;48.798;9.070;2023-04-24T03:41:21;10.10;99.90
11264;DHT22;5689;48.798;9.070;2023-04-24T03:43:54;10.00;99.90
11264;DHT22;5689;48.798;9.070;2023-04-24T03:46:22;10.00;99.90
11264;DHT22;5689;48.798;9.070;2023-04-24T03:48:54;9.90;99.90
11264;DHT22;5689;48.798;9.070;2023-04-24T03:51:26;9.90;99.90
11264;DHT22;5689;48.798;9.070;2023-04-24T03:54:04;9.90;99.90
11264;DHT22;5689;48.798;9.070;2023-04-24T03:56:35;9.90;99.90
11264;DHT22;5689;48.798;9.070;2023-04-24T03:59:03;9.90;99.90
11264;DHT22;5689;48.798;9.070;2023-04-24T04:01:31;9.90;99.90
11264;DHT22;5689;48.798;9.070;2023-04-24T04:04:09;9.90;99.90
11264;DHT22;5689;48.798;9.070;2023-04-24T04:06:38;9.90;99.90
11264;DHT22;5689;48.798;9.070;2023-04-24T04:09:07;9.90;99.90
11264;DHT22;5689;48.798;9.070;2023-04-24T04:11:36;10.00;99.90
11264;DHT22;5689;48.798;9.070;2023-04-24T04:14:04;10.10;99.90
11264;DHT22;5689;48.798;9.070;2023-04-24T04:16:34;10.10;99.90
11264;DHT22;5689;48.798;9.070;2023-04-24T04:19:04;10.00;99.90
11264;DHT22;5689;48.798;9.070;2023-04-24T04:21:33;9.90;99.90
11264;DHT22;5689;48.798;9.070;2023-04-24T04:24:12;9.90;99.90
11264;DHT22;5689;48.798;9.070;2023-04-24T04:26:43;9.80;99.90
11264;DHT22;5689;48.798;9.070;2023-04-24T04:29:21;9.70;99.90
11264;DHT22;5689;48.798;9.070;2023-04-24T04:31:51;9.50;99.90
11264;DHT22;5689;48.798;9.070;2023-04-24T04:34:20;9.50;99.90
11264;DHT22;5689;48.798;9.070;2023-04-24T04:36:49;9.50;99.90
11264;DHT22;5689;48.798;9.070;2023-04-24T04:39:52;9.40;99.90
11264;DHT22;5689;48.798;9.070;2023-04-24T04:42:23;9.40;99.90
11264;DHT22;5689;48.798;9.070;2023-04-24T04:44:51;9.30;99.90
11264;DHT22;5689;48.798;9.070;2023-04-24T04:47:25;9.20;99.90
11264;DHT22;5689;48.798;9.070;2023-04-24T04:49:56;9.20;99.90
11264;DHT22;5689;48.798;9.070;2023-04-24T04:52:26;9.10;99.90
11264;DHT22;5689;48.798;9.070;2023-04-24T04:55:08;9.10;99.90
11264;DHT22;5689;48.798;9.070;2023-04-24T04:58:02;9.10;99.90
11264;DHT22;5689;48.798;9.070;2023-04-24T05:00:30;9.10;99.90
11264;DHT22;5689;48.798;9.070;2023-04-24T05:03:07;9.10;99.90
11264;DHT22;5689;48.798;9.070;2023-04-24T05:05:45;9.10;99.90
11264;DHT22;5689;48.798;9.070;2023-04-24T05:08:15;9.10;99.90
11264;DHT22;5689;48.798;9.070;2023-04-24T05:10:51;9.10;99.90
11264;DHT22;5689;48.798;9.070;2023-04-24T05:13:19;9.10;99.90
11264;DHT22;5689;48.798;9.070;2023-04-24T05:15:49;9.10;99.90
11264;DHT22;5689;48.798;9.070;2023-04-24T05:18:17;9.30;99.90
11264;DHT22;5689;48.798;9.070;2023-04-24T05:20:45;9.30;99.90
11264;DHT22;5689;48.798;9.070;2023-04-24T05:23:16;9.30;99.90
11264;DHT22;5689;48.798;9.070;2023-04-24T05:25:46;9.40;99.90
11264;DHT22;5689;48.798;9.070;2023-04-24T05:28:16;9.40;99.90
11264;DHT22;5689;48.798;9.070;2023-04-24T05:30:50;9.30;99.90
11264;DHT22;5689;48.798;9.070;2023-04-24T05:33:19;9.50;99.90
11264;DHT22;5689;48.798;9.070;2023-04-24T05:35:47;9.40;99.90
11264;DHT22;5689;48.798;9.070;2023-04-24T05:38:15;9.30;99.90
11264;DHT22;5689;48.798;9.070;2023-04-24T05:40:44;9.20;99.90
11264;DHT22;5689;48.798;9.070;2023-04-24T05:43:12;9.20;99.90
11264;DHT22;5689;48.798;9.070;2023-04-24T05:45:42;9.30;99.90
11264;DHT22;5689;48.798;9.070;2023-04-24T05:48:10;9.40;99.90
11264;DHT22;5689;48.798;9.070;2023-04-24T05:50:38;9.60;99.90
11264;DHT22;5689;48.798;9.070;2023-04-24T05:53:06;9.70;99.90
11264;DHT22;5689;48.798;9.070;2023-04-24T05:55:36;9.60;99.90
11264;DHT22;5689;48.798;9.070;2023-04-24T05:58:05;9.60;99.90
11264;DHT22;5689;48.798;9.070;2023-04-24T06:00:35;9.50;99.90
11264;DHT22;5689;48.798;9.070;2023-04-24T06:03:08;9.50;99.90
11264;DHT22;5689;48.798;9.070;2023-04-24T06:05:36;9.40;99.90
11264;DHT22;5689;48.798;9.070;2023-04-24T06:08:04;9.40;99.90
11264;DHT22;5689;48.798;9.070;2023-04-24T06:10:36;9.50;99.90
11264;DHT22;5689;48.798;9.070;2023-04-24T06:13:06;9.70;99.90
11264;DHT22;5689;48.798;9.070;2023-04-24T06:15:36;10.10;99.90
11264;DHT22;5689;48.798;9.070;2023-04-24T06:18:08;11.10;99.90
11264;DHT22;5689;48.798;9.070;2023-04-24T06:20:38;12.60;99.90
11264;DHT22;5689;48.798;9.070;2023-04-24T06:23:08;12.80;99.90
11264;DHT22;5689;48.798;9.070;2023-04-24T06:25:36;13.20;99.90
11264;DHT22;5689;48.798;9.070;2023-04-24T06:28:04;12.80;99.90
11264;DHT22;5689;48.798;9.070;2023-04-24T06:30:32;12.30;99.90
11264;DHT22;5689;48.798;9.070;2023-04-24T06:33:00;12.50;99.90
11264;DHT22;5689;48.798;9.070;2023-04-24T06:35:33;12.80;99.90
11264;DHT22;5689;48.798;9.070;2023-04-24T06:38:01;14.00;99.90
11264;DHT22;5689;48.798;9.070;2023-04-24T06:40:29;14.50;99.90
11264;DHT22;5689;48.798;9.070;2023-04-24T06:42:57;15.10;99.90
11264;DHT22;5689;48.798;9.070;2023-04-24T06:45:26;15.20;99.90
11264;DHT22;5689;48.798;9.070;2023-04-24T06:47:54;15.30;99.90
11264;DHT22;5689;48.798;9.070;2023-04-24T06:50:22;15.70;99.90
11264;DHT22;5689;48.798;9.070;2023-04-24T06:52:52;14.90;99.90
11264;DHT22;5689;48.798;9.070;2023-04-24T06:55:20;14.50;99.90
11264;DHT22;5689;48.798;9.070;2023-04-24T06:57:48;14.60;99.90
11264;DHT22;5689;48.798;9.070;2023-04-24T07:00:16;15.00;99.90
11264;DHT22;5689;48.798;9.070;2023-04-24T07:02:44;13.40;99.90
11264;DHT22;5689;48.798;9.070;2023-04-24T07:05:12;13.00;99.90
11264;DHT22;5689;48.798;9.070;2023-04-24T07:07:41;12.70;99.90
11264;DHT22;5689;48.798;9.070;2023-04-24T07:10:11;12.40;99.90
11264;DHT22;5689;48.798;9.070;2023-04-24T07:12:42;12.50;99.90
11264;DHT22;5689;48.798;9.070;2023-04-24T07:15:10;12.60;99.90
11264;DHT22;5689;48.798;9.070;2023-04-24T07:17:39;12.40;99.90
11264;DHT22;5689;48.798;9.070;2023-04-24T07:20:10;11.90;99.90
11264;DHT22;5689;48.798;9.070;2023-04-24T07:22:38;11.80;99.90
11264;DHT22;5689;48.798;9.070;2023-04-24T07:25:07;11.70;99.90
11264;DHT22;5689;48.798;9.070;2023-04-24T07:27:36;11.90;99.90
11264;DHT22;5689;48.798;9.070;2023-04-24T07:30:05;12.10;99.90
11264;DHT22;5689;48.798;9.070;2023-04-24T07:32:33;12.90;99.90
11264;DHT22;5689;48.798;9.070;2023-04-24T07:35:02;13.70;99.90
11264;DHT22;5689;48.798;9.070;2023-04-24T07:37:30;13.50;99.90
11264;DHT22;5689;48.798;9.070;2023-04-24T07:39:58;12.90;99.90
11264;DHT22;5689;48.798;9.070;2023-04-24T07:42:26;14.40;99.90
11264;DHT22;5689;48.798;9.070;2023-04-24T07:44:58;14.00;99.90
11264;DHT22;5689;48.798;9.070;2023-04-24T07:47:28;13.60;99.90
11264;DHT22;5689;48.798;9.070;2023-04-24T07:49:56;13.10;99.90
11264;DHT22;5689;48.798;9.070;2023-04-24T07:52:24;13.50;99.90
11264;DHT22;5689;48.798;9.070;2023-04-24T07:54:52;13.60;99.90
11264;DHT22;5689;48.798;9.070;2023-04-24T07:57:24;13.70;99.90
11264;DHT22;5689;48.798;9.070;2023-04-24T07:59:53;12.90;99.90
11264;DHT22;5689;48.798;9.070;2023-04-24T08:02:22;12.70;99.90
11264;DHT22;5689;48.798;9.070;2023-04-24T08:04:53;12.60;99.90
11264;DHT22;5689;48.798;9.070;2023-04-24T08:07:22;13.20;99.90
11264;DHT22;5689;48.798;9.070;2023-04-24T08:09:50;13.10;99.90
11264;DHT22;5689;48.798;9.070;2023-04-24T08:12:18;14.00;99.90
11264;DHT22;5689;48.798;9.070;2023-04-24T08:14:46;14.10;98.60
11264;DHT22;5689;48.798;9.070;2023-04-24T08:17:14;14.00;98.20
11264;DHT22;5689;48.798;9.070;2023-04-24T08:19:45;13.90;97.60
11264;DHT22;5689;48.798;9.070;2023-04-24T08:22:17;14.20;98.20
11264;DHT22;5689;48.798;9.070;2023-04-24T08:24:45;14.40;97.20
11264;DHT22;5689;48.798;9.070;2023-04-24T08:27:13;15.10;96.10
11264;DHT22;5689;48.798;9.070;2023-04-24T08:29:41;15.30;94.90
11264;DHT22;5689;48.798;9.070;2023-04-24T08:32:09;15.30;95.30
11264;DHT22;5689;48.798;9.070;2023-04-24T08:34:37;14.40;95.20
11264;DHT22;5689;48.798;9.070;2023-04-24T08:37:06;14.10;96.60
11264;DHT22;5689;48.798;9.070;2023-04-24T08:39:34;13.80;96.10
11264;DHT22;5689;48.798;9.070;2023-04-24T08:42:03;12.60;97.60
11264;DHT22;5689;48.798;9.070;2023-04-24T08:44:35;11.90;99.90
11264;DHT22;5689;48.798;9.070;2023-04-24T08:47:04;11.70;99.90
11264;DHT22;5689;48.798;9.070;2023-04-24T08:49:33;12.00;99.90
11264;DHT22;5689;48.798;9.070;2023-04-24T08:52:08;12.20;99.90
11264;DHT22;5689;48.798;9.070;2023-04-24T08:54:36;12.30;99.90
11264;DHT22;5689;48.798;9.070;2023-04-24T08:57:07;12.40;99.90
11264;DHT22;5689;48.798;9.070;2023-04-24T08:59:38;12.10;99.90
11264;DHT22;5689;48.798;9.070;2023-04-24T09:02:06;11.70;99.90
11264;DHT22;5689;48.798;9.070;2023-04-24T09:04:37;11.70;99.90
11264;DHT22;5689;48.798;9.070;2023-04-24T09:07:07;11.50;99.90
11264;DHT22;5689;48.798;9.070;2023-04-24T09:09:38;11.40;99.90
11264;DHT22;5689;48.798;9.070;2023-04-24T09:12:07;10.80;99.90
11264;DHT22;5689;48.798;9.070;2023-04-24T09:14:36;10.80;99.90
11264;DHT22;5689;48.798;9.070;2023-04-24T09:17:09;10.40;99.90
11264;DHT22;5689;48.798;9.070;2023-04-24T09:19:37;10.10;99.90
11264;DHT22;5689;48.798;9.070;2023-04-24T09:22:06;10.10;99.90
11264;DHT22;5689;48.798;9.070;2023-04-24T09:24:35;10.30;99.90
11264;DHT22;5689;48.798;9.070;2023-04-24T09:27:03;10.60;99.90
11264;DHT22;5689;48.798;9.070;2023-04-24T09:29:31;11.10;99.90
11264;DHT22;5689;48.798;9.070;2023-04-24T09:32:18;11.70;99.90
11264;DHT22;5689;48.798;9.070;2023-04-24T09:34:48;13.60;99.90
11264;DHT22;5689;48.798;9.070;2023-04-24T09:37:28;14.60;99.50
11264;DHT22;5689;48.798;9.070;2023-04-24T09:40:14;14.90;99.50
11264;DHT22;5689;48.798;9.070;2023-04-24T09:42:44;16.10;96.90
11264;DHT22;5689;48.798;9.070;2023-04-24T09:45:12;15.40;97.10
11264;DHT22;5689;48.798;9.070;2023-04-24T09:47:41;14.60;97.20
11264;DHT22;5689;48.798;9.070;2023-04-24T09:50:14;14.60;96.90
11264;DHT22;5689;48.798;9.070;2023-04-24T09:52:55;15.10;96.10
11264;DHT22;5689;48.798;9.070;2023-04-24T09:55:24;13.90;95.10
11264;DHT22;5689;48.798;9.070;2023-04-24T09:57:54;14.60;96.50
11264;DHT22;5689;48.798;9.070;2023-04-24T10:00:23;14.50;96.30
11264;DHT22;5689;48.798;9.070;2023-04-24T10:02:55;15.40;94.60
11264;DHT22;5689;48.798;9.070;2023-04-24T10:05:27;14.90;94.20
11264;DHT22;5689;48.798;9.070;2023-04-24T10:08:01;15.20;94.90
11264;DHT22;5689;48.798;9.070;2023-04-24T10:10:29;16.00;91.40
11264;DHT22;5689;48.798;9.070;2023-04-24T10:12:59;15.90;90.30
11264;DHT22;5689;48.798;9.070;2023-04-24T10:15:27;16.10;92.00
11264;DHT22;5689;48.798;9.070;2023-04-24T10:17:57;16.30;90.00
11264;DHT22;5689;48.798;9.070;2023-04-24T10:20:28;15.90;90.00
11264;DHT22;5689;48.798;9.070;2023-04-24T10:22:57;16.50;85.70
11264;DHT22;5689;48.798;9.070;2023-04-24T10:25:29;15.70;88.50
11264;DHT22;5689;48.798;9.070;2023-04-24T10:27:59;15.20;91.70
11264;DHT22;5689;48.798;9.070;2023-04-24T10:30:31;15.30;90.20
11264;DHT22;5689;48.798;9.070;2023-04-24T10:33:02;14.00;91.00
11264;DHT22;5689;48.798;9.070;2023-04-24T10:35:31;12.60;92.70
11264;DHT22;5689;48.798;9.070;2023-04-24T10:38:03;12.80;93.60
11264;DHT22;5689;48.798;9.070;2023-04-24T10:40:35;12.60;93.40
11264;DHT22;5689;48.798;9.070;2023-04-24T10:43:03;12.60;93.40
11264;DHT22;5689;48.798;9.070;2023-04-24T10:45:33;12.90;93.30
11264;DHT22;5689;48.798;9.070;2023-04-24T10:48:02;12.90;92.80
11264;DHT22;5689;48.798;9.070;2023-04-24T10:50:43;13.00;92.30
11264;DHT22;5689;48.798;9.070;2023-04-24T10:53:16;13.40;93.40
11264;DHT22;5689;48.798;9.070;2023-04-24T10:55:50;13.20;93.90
11264;DHT22;5689;48.798;9.070;2023-04-24T10:58:22;13.00;93.60
11264;DHT22;5689;48.798;9.070;2023-04-24T11:00:56;13.10;94.40
11264;DHT22;5689;48.798;9.070;2023-04-24T11:03:26;12.80;94.60
11264;DHT22;5689;48.798;9.070;2023-04-24T11:05:57;12.60;95.00
11264;DHT22;5689;48.798;9.070;2023-04-24T11:08:30;12.50;95.00
11264;DHT22;5689;48.798;9.070;2023-04-24T11:11:03;12.20;95.20
11264;DHT22;5689;48.798;9.070;2023-04-24T11:14:03;12.60;93.80
11264;DHT22;5689;48.798;9.070;2023-04-24T11:16:34;12.50;94.30
11264;DHT22;5689;48.798;9.070;2023-04-24T11:19:04;13.20;93.70
11264;DHT22;5689;48.798;9.070;2023-04-24T11:21:42;14.30;93.40
11264;DHT22;5689;48.798;9.070;2023-04-24T11:24:27;15.10;91.00
11264;DHT22;5689;48.798;9.070;2023-04-24T11:26:58;15.30;90.60
11264;DHT22;5689;48.798;9.070;2023-04-24T11:29:40;14.60;91.80
11264;DHT22;5689;48.798;9.070;2023-04-24T11:32:18;14.70;92.20
11264;DHT22;5689;48.798;9.070;2023-04-24T11:34:51;14.60;90.80
11264;DHT22;5689;48.798;9.070;2023-04-24T11:37:19;14.00;92.20
11264;DHT22;5689;48.798;9.070;2023-04-24T11:39:51;13.40;92.40
11264;DHT22;5689;48.798;9.070;2023-04-24T11:42:21;13.20;92.70
11264;DHT22;5689;48.798;9.070;2023-04-24T11:44:50;12.50;93.90
11264;DHT22;5689;48.798;9.070;2023-04-24T11:47:19;12.30;95.10
11264;DHT22;5689;48.798;9.070;2023-04-24T11:49:50;12.50;96.30
11264;DHT22;5689;48.798;9.070;2023-04-24T11:52:18;12.50;96.10
11264;DHT22;5689;48.798;9.070;2023-04-24T11:54:48;13.60;95.10
11264;DHT22;5689;48.798;9.070;2023-04-24T11:57:20;14.00;94.40
11264;DHT22;5689;48.798;9.070;2023-04-24T11:59:49;14.50;93.90
11264;DHT22;5689;48.798;9.070;2023-04-24T12:02:21;15.10;94.10
11264;DHT22;5689;48.798;9.070;2023-04-24T12:04:50;15.20;92.70
11264;DHT22;5689;48.798;9.070;2023-04-24T12:07:18;13.80;93.70
11264;DHT22;5689;48.798;9.070;2023-04-24T12:09:49;13.90;93.40
11264;DHT22;5689;48.798;9.070;2023-04-24T12:12:18;13.30;93.80
11264;DHT22;5689;48.798;9.070;2023-04-24T12:14:53;12.80;94.40
11264;DHT22;5689;48.798;9.070;2023-04-24T12:17:26;12.70;93.80
11264;DHT22;5689;48.798;9.070;2023-04-24T12:19:58;12.40;94.40
11264;DHT22;5689;48.798;9.070;2023-04-24T12:22:27;12.50;94.10
11264;DHT22;5689;48.798;9.070;2023-04-24T12:24:59;12.80;93.90
11264;DHT22;5689;48.798;9.070;2023-04-24T12:27:31;12.80;94.20
11264;DHT22;5689;48.798;9.070;2023-04-24T12:30:04;12.70;93.40
11264;DHT22;5689;48.798;9.070;2023-04-24T12:32:32;12.50;93.20
11264;DHT22;5689;48.798;9.070;2023-04-24T12:35:00;12.60;93.70
11264;DHT22;5689;48.798;9.070;2023-04-24T12:37:33;13.00;94.50
11264;DHT22;5689;48.798;9.070;2023-04-24T12:40:04;13.20;92.70
11264;DHT22;5689;48.798;9.070;2023-04-24T12:42:34;13.00;93.20
11264;DHT22;5689;48.798;9.070;2023-04-24T12:45:05;12.50;94.80
11264;DHT22;5689;48.798;9.070;2023-04-24T12:47:34;12.90;93.80
11264;DHT22;5689;48.798;9.070;2023-04-24T12:50:03;12.80;93.80
11264;DHT22;5689;48.798;9.070;2023-04-24T12:52:32;12.10;95.60
11264;DHT22;5689;48.798;9.070;2023-04-24T12:55:01;12.00;96.20
11264;DHT22;5689;48.798;9.070;2023-04-24T12:57:30;11.10;99.90
11264;DHT22;5689;48.798;9.070;2023-04-24T12:59:58;10.50;99.90
11264;DHT22;5689;48.798;9.070;2023-04-24T13:02:29;10.50;99.90
11264;DHT22;5689;48.798;9.070;2023-04-24T13:04:58;11.00;99.90
11264;DHT22;5689;48.798;9.070;2023-04-24T13:07:27;11.70;99.90
11264;DHT22;5689;48.798;9.070;2023-04-24T13:09:56;12.70;99.90
11264;DHT22;5689;48.798;9.070;2023-04-24T13:12:24;12.60;99.90
11264;DHT22;5689;48.798;9.070;2023-04-24T13:14:53;12.10;99.90
11264;DHT22;5689;48.798;9.070;2023-04-24T13:17:21;12.20;99.90
11264;DHT22;5689;48.798;9.070;2023-04-24T13:19:51;12.20;99.90
11264;DHT22;5689;48.798;9.070;2023-04-24T13:22:20;12.10;99.90
11264;DHT22;5689;48.798;9.070;2023-04-24T13:24:48;12.20;99.90
11264;DHT22;5689;48.798;9.070;2023-04-24T13:27:16;12.30;99.90
11264;DHT22;5689;48.798;9.070;2023-04-24T13:29:44;12.30;99.70
11264;DHT22;5689;48.798;9.070;2023-04-24T13:32:12;12.50;98.70
11264;DHT22;5689;48.798;9.070;2023-04-24T13:34:41;12.40;99.20
11264;DHT22;5689;48.798;9.070;2023-04-24T13:37:10;12.20;99.10
11264;DHT22;5689;48.798;9.070;2023-04-24T13:39:38;12.10;99.60
11264;DHT22;5689;48.798;9.070;2023-04-24T13:42:08;11.70;99.90
11264;DHT22;5689;48.798;9.070;2023-04-24T13:44:36;11.10;99.90
11264;DHT22;5689;48.798;9.070;2023-04-24T13:47:04;10.60;99.90
11264;DHT22;5689;48.798;9.070;2023-04-24T13:49:32;10.50;99.90
11264;DHT22;5689;48.798;9.070;2023-04-24T13:52:00;10.50;99.90
11264;DHT22;5689;48.798;9.070;2023-04-24T13:54:29;11.40;99.90
11264;DHT22;5689;48.798;9.070;2023-04-24T13:56:58;12.00;99.90
11264;DHT22;5689;48.798;9.070;2023-04-24T13:59:27;12.30;99.90
11264;DHT22;5689;48.798;9.070;2023-04-24T14:01:55;13.00;99.90
11264;DHT22;5689;48.798;9.070;2023-04-24T14:04:23;14.30;99.90
11264;DHT22;5689;48.798;9.070;2023-04-24T14:06:51;15.90;97.70
11264;DHT22;5689;48.798;9.070;2023-04-24T14:09:18;15.00;98.70
11264;DHT22;5689;48.798;9.070;2023-04-24T14:11:48;15.60;97.80
11264;DHT22;5689;48.798;9.070;2023-04-24T14:14:16;15.40;97.30
11264;DHT22;5689;48.798;9.070;2023-04-24T14:16:44;14.00;98.50
11264;DHT22;5689;48.798;9.070;2023-04-24T14:19:12;14.00;98.10
11264;DHT22;5689;48.798;9.070;2023-04-24T14:21:39;13.80;97.70
11264;DHT22;5689;48.798;9.070;2023-04-24T14:24:08;13.50;97.80
11264;DHT22;5689;48.798;9.070;2023-04-24T14:26:36;15.50;96.90
11264;DHT22;5689;48.798;9.070;2023-04-24T14:29:05;15.30;95.60
11264;DHT22;5689;48.798;9.070;2023-04-24T14:31:39;15.70;95.00
11264;DHT22;5689;48.798;9.070;2023-04-24T14:34:07;14.10;97.00
11264;DHT22;5689;48.798;9.070;2023-04-24T14:36:35;13.80;97.50
11264;DHT22;5689;48.798;9.070;2023-04-24T14:39:03;13.40;97.90
11264;DHT22;5689;48.798;9.070;2023-04-24T14:41:33;13.10;97.60
11264;DHT22;5689;48.798;9.070;2023-04-24T14:44:02;13.10;97.90
11264;DHT22;5689;48.798;9.070;2023-04-24T14:46:32;13.00;98.30
11264;DHT22;5689;48.798;9.070;2023-04-24T14:49:00;13.00;97.90
11264;DHT22;5689;48.798;9.070;2023-04-24T14:51:28;13.10;98.30
11264;DHT22;5689;48.798;9.070;2023-04-24T14:53:56;13.50;98.20
11264;DHT22;5689;48.798;9.070;2023-04-24T14:56:24;14.70;97.40
11264;DHT22;5689;48.798;9.070;2023-04-24T14:58:53;16.20;93.70
11264;DHT22;5689;48.798;9.070;2023-04-24T15:01:21;14.90;95.80
11264;DHT22;5689;48.798;9.070;2023-04-24T15:03:52;13.80;96.30
11264;DHT22;5689;48.798;9.070;2023-04-24T15:06:20;12.80;97.60
11264;DHT22;5689;48.798;9.070;2023-04-24T15:08:48;12.40;98.40
11264;DHT22;5689;48.798;9.070;2023-04-24T15:11:16;12.20;98.90
11264;DHT22;5689;48.798;9.070;2023-04-24T15:13:44;12.00;98.60
11264;DHT22;5689;48.798;9.070;2023-04-24T15:16:12;11.90;98.70
11264;DHT22;5689;48.798;9.070;2023-04-24T15:18:40;11.80;98.90
11264;DHT22;5689;48.798;9.070;2023-04-24T15:21:10;11.70;99.40
11264;DHT22;5689;48.798;9.070;2023-04-24T15:23:39;11.60;99.60
11264;DHT22;5689;48.798;9.070;2023-04-24T15:26:07;11.30;99.90
11264;DHT22;5689;48.798;9.070;2023-04-24T15:28:35;11.20;99.90
11264;DHT22;5689;48.798;9.070;2023-04-24T15:31:03;10.30;99.90
11264;DHT22;5689;48.798;9.070;2023-04-24T15:33:31;10.00;99.90
11264;DHT22;5689;48.798;9.070;2023-04-24T15:35:59;10.10;99.90
11264;DHT22;5689;48.798;9.070;2023-04-24T15:38:28;10.20;99.90
11264;DHT22;5689;48.798;9.070;2023-04-24T15:40:56;10.00;99.90
11264;DHT22;5689;48.798;9.070;2023-04-24T15:43:24;10.00;99.90
11264;DHT22;5689;48.798;9.070;2023-04-24T15:45:52;10.10;99.90
11264;DHT22;5689;48.798;9.070;2023-04-24T15:48:20;10.20;99.90
11264;DHT22;5689;48.798;9.070;2023-04-24T15:50:48;10.30;99.90
11264;DHT22;5689;48.798;9.070;2023-04-24T15:53:16;11.50;99.90
11264;DHT22;5689;48.798;9.070;2023-04-24T15:55:49;13.90;99.90
11264;DHT22;5689;48.798;9.070;2023-04-24T15:58:18;15.60;99.90
11264;DHT22;5689;48.798;9.070;2023-04-24T16:00:47;15.70;99.90
11264;DHT22;5689;48.798;9.070;2023-04-24T16:03:15;15.50;99.90